createdAt,value
2022-08-05T00:01:36.242Z,41.51
2022-08-05T00:04:16.774Z,41.57
2022-08-05T00:06:45.337Z,41.72
2022-08-05T00:09:16.047Z,41.48
2022-08-05T00:11:55.618Z,41.69
2022-08-05T00:14:27.540Z,41.58
2022-08-05T00:16:56.997Z,41.68
2022-08-05T00:19:32.787Z,41.64
2022-08-05T00:22:01.912Z,41.77
2022-08-05T00:24:30.901Z,41.74
2022-08-05T00:27:00.806Z,41.75
2022-08-05T00:29:37.831Z,41.74
2022-08-05T00:32:12.219Z,41.96
2022-08-05T00:35:05.542Z,42.06
2022-08-05T00:37:50.420Z,42.21
2022-08-05T00:40:26.790Z,42.27
2022-08-05T00:42:58.344Z,42.18
2022-08-05T00:45:38.066Z,42.44
2022-08-05T00:48:10.785Z,42.46
2022-08-05T00:50:41.352Z,42.49
2022-08-05T00:54:00.617Z,42.33
2022-08-05T00:55:57.855Z,42.53
2022-08-05T00:58:27.543Z,42.49
2022-08-05T01:00:55.719Z,42.74
2022-08-05T01:03:24.282Z,42.36
2022-08-05T01:05:58.991Z,42.47
2022-08-05T01:08:40.930Z,42.86
2022-08-05T01:11:13.656Z,42.59
2022-08-05T01:13:58.699Z,42.89
2022-08-05T01:16:30.350Z,42.68
2022-08-05T01:19:01.100Z,42.55
2022-08-05T01:21:44.505Z,42.70
2022-08-05T01:24:30.169Z,42.68
2022-08-05T01:27:17.947Z,42.53
2022-08-05T01:29:50.382Z,43.06
2022-08-05T01:32:22.172Z,42.90
2022-08-05T01:34:52.138Z,42.64
2022-08-05T01:37:36.694Z,42.79
2022-08-05T01:40:12.497Z,43.09
2022-08-05T01:42:41.068Z,43.01
2022-08-05T01:45:11.158Z,42.69
2022-08-05T01:47:43.251Z,42.74
2022-08-05T01:50:15.017Z,42.77
2022-08-05T01:52:44.272Z,43.16
2022-08-05T01:55:13.008Z,42.95
2022-08-05T01:58:11.161Z,43.34
2022-08-05T02:00:34.294Z,43.08
2022-08-05T02:03:05.236Z,43.16
2022-08-05T02:05:35.927Z,43.11
2022-08-05T02:08:04.998Z,42.98
2022-08-05T02:10:35.889Z,42.98
2022-08-05T02:13:15.763Z,43.12
2022-08-05T02:15:47.773Z,42.94
2022-08-05T02:18:30.645Z,43.06
2022-08-05T02:21:03.235Z,42.76
2022-08-05T02:23:35.713Z,43.11
2022-08-05T02:26:04.565Z,43.02
2022-08-05T02:28:38.294Z,43.08
2022-08-05T02:31:14.634Z,43.09
2022-08-05T02:33:46.070Z,43.06
2022-08-05T02:36:17.890Z,43.20
2022-08-05T02:38:53.613Z,42.95
2022-08-05T02:41:23.134Z,42.95
2022-08-05T02:44:06.404Z,43.06
2022-08-05T02:46:53.114Z,43.33
2022-08-05T02:49:26.831Z,43.69
2022-08-05T02:52:04.375Z,43.66
2022-08-05T02:54:37.194Z,43.68
2022-08-05T02:57:10.209Z,43.60
2022-08-05T02:59:55.187Z,43.36
2022-08-05T03:02:27.435Z,43.69
2022-08-05T03:04:55.952Z,43.51
2022-08-05T03:08:00.705Z,43.76
2022-08-05T03:10:13.406Z,43.62
2022-08-05T03:12:41.400Z,43.68
2022-08-05T03:15:12.233Z,44.08
2022-08-05T03:17:44.888Z,44.23
2022-08-05T03:20:13.712Z,44.29
2022-08-05T03:22:46.730Z,44.25
2022-08-05T03:25:33.114Z,44.11
2022-08-05T03:28:07.093Z,44.41
2022-08-05T03:30:36.529Z,44.24
2022-08-05T03:33:07.507Z,44.32
2022-08-05T03:35:40.739Z,44.69
2022-08-05T03:38:11.714Z,44.60
2022-08-05T03:40:41.415Z,44.90
2022-08-05T03:43:59.294Z,44.97
2022-08-05T03:46:01.565Z,44.93
2022-08-05T03:48:35.239Z,45.04
2022-08-05T03:52:37.822Z,44.88
2022-08-05T03:55:53.093Z,45.00
2022-08-05T03:56:46.497Z,44.87
2022-08-05T03:59:16.112Z,44.94
2022-08-05T04:01:49.446Z,45.04
2022-08-05T04:04:21.353Z,45.24
2022-08-05T04:06:51.146Z,44.94
2022-08-05T04:09:20.278Z,45.08
2022-08-05T04:11:54.215Z,45.19
2022-08-05T04:14:30.587Z,45.52
2022-08-05T04:16:59.796Z,45.52
2022-08-05T04:19:29.527Z,45.95
2022-08-05T04:22:08.641Z,45.88
2022-08-05T04:24:44.587Z,45.88
2022-08-05T04:27:33.104Z,46.02
2022-08-05T04:30:09.192Z,45.91
2022-08-05T04:32:37.751Z,46.41
2022-08-05T04:35:17.609Z,46.11
2022-08-05T04:38:01.191Z,46.17
2022-08-05T04:40:31.061Z,46.41
2022-08-05T04:42:59.098Z,46.37
2022-08-05T04:45:47.927Z,46.48
2022-08-05T04:48:26.983Z,46.08
2022-08-05T04:51:02.668Z,46.44
2022-08-05T04:53:33.489Z,46.25
2022-08-05T04:56:32.912Z,46.68
2022-08-05T04:58:51.713Z,46.71
2022-08-05T05:02:04.082Z,46.88
2022-08-05T05:04:08.375Z,46.69
2022-08-05T05:06:44.277Z,46.89
2022-08-05T05:09:16.077Z,46.82
2022-08-05T05:11:54.602Z,46.79
2022-08-05T05:14:27.848Z,46.65
2022-08-05T05:17:00.227Z,46.61
2022-08-05T05:19:36.857Z,46.59
2022-08-05T05:22:22.651Z,46.80
2022-08-05T05:24:57.654Z,46.65
2022-08-05T05:27:44.614Z,46.68
2022-08-05T05:30:29.736Z,46.83
2022-08-05T05:33:03.838Z,46.60
2022-08-05T05:35:44.356Z,46.57
2022-08-05T05:38:14.454Z,46.90
2022-08-05T05:40:49.579Z,46.51
2022-08-05T05:43:21.874Z,46.91
2022-08-05T05:45:56.402Z,46.59
2022-08-05T05:48:27.576Z,46.85
2022-08-05T05:50:55.809Z,46.93
2022-08-05T05:53:25.165Z,47.06
2022-08-05T05:56:00.861Z,47.11
2022-08-05T05:58:31.742Z,46.82
2022-08-05T06:01:02.220Z,47.23
2022-08-05T06:04:00.600Z,46.84
2022-08-05T06:06:33.107Z,46.93
2022-08-05T06:09:04.281Z,47.37
2022-08-05T06:11:33.063Z,47.39
2022-08-05T06:14:01.061Z,47.14
2022-08-05T06:16:32.796Z,46.97
2022-08-05T06:19:05.970Z,47.16
2022-08-05T06:21:37.088Z,47.14
2022-08-05T06:24:11.959Z,47.24
2022-08-05T06:26:52.209Z,47.04
2022-08-05T06:29:25.104Z,46.89
2022-08-05T06:32:26.245Z,47.00
2022-08-05T06:34:57.845Z,47.13
2022-08-05T06:37:56.182Z,46.90
2022-08-05T06:40:18.161Z,46.71
2022-08-05T06:42:51.735Z,46.49
2022-08-05T06:45:44.082Z,46.44
2022-08-05T06:48:46.858Z,46.28
2022-08-05T06:50:56.919Z,46.37
2022-08-05T06:53:28.208Z,45.75
2022-08-05T06:55:58.261Z,45.66
2022-08-05T06:58:35.346Z,45.83
2022-08-05T07:01:05.991Z,45.36
2022-08-05T07:03:34.082Z,45.07
2022-08-05T07:06:06.284Z,45.06
2022-08-05T07:08:43.150Z,44.96
2022-08-05T07:11:17.762Z,44.89
2022-08-05T07:14:07.671Z,44.61
2022-08-05T07:17:58.778Z,44.53
2022-08-05T07:20:31.638Z,44.65
2022-08-05T07:22:30.147Z,44.52
2022-08-05T07:25:55.576Z,44.71
2022-08-05T07:27:57.160Z,44.35
2022-08-05T07:30:32.204Z,44.14
2022-08-05T07:33:01.738Z,44.20
2022-08-05T07:36:02.653Z,44.34
2022-08-05T07:38:26.326Z,44.07
2022-08-05T07:41:35.167Z,44.21
2022-08-05T07:43:52.393Z,44.23
2022-08-05T07:46:25.080Z,44.05
2022-08-05T07:49:04.535Z,43.76
2022-08-05T07:51:48.776Z,43.49
2022-08-05T07:54:23.150Z,43.70
2022-08-05T07:57:02.822Z,43.54
2022-08-05T07:59:43.499Z,43.49
2022-08-05T08:02:15.916Z,43.23
2022-08-05T08:04:49.215Z,42.96
2022-08-05T08:07:18.290Z,42.96
2022-08-05T08:09:52.444Z,43.00
2022-08-05T08:12:35.310Z,42.56
2022-08-05T08:15:15.767Z,42.36
2022-08-05T08:17:50.571Z,41.96
2022-08-05T08:20:59.873Z,41.70
2022-08-05T08:23:59.994Z,41.76
2022-08-05T08:26:00.330Z,41.79
2022-08-05T08:28:36.183Z,41.96
2022-08-05T08:31:07.146Z,41.51
2022-08-05T08:33:37.670Z,41.40
2022-08-05T08:36:38.451Z,41.43
2022-08-05T08:38:56.961Z,41.89
2022-08-05T08:41:52.412Z,41.28
2022-08-05T08:45:25.240Z,41.39
2022-08-05T08:47:03.156Z,41.53
2022-08-05T08:50:23.315Z,41.71
2022-08-05T08:52:21.305Z,41.72
2022-08-05T08:54:52.737Z,41.50
2022-08-05T08:57:21.077Z,40.97
2022-08-05T08:59:50.893Z,40.75
2022-08-05T09:02:21.803Z,41.20
2022-08-05T09:05:16.172Z,41.37
2022-08-05T09:07:56.713Z,41.41
2022-08-05T09:10:27.096Z,41.45
2022-08-05T09:12:56.039Z,41.60
2022-08-05T09:15:24.022Z,41.47
2022-08-05T09:17:54.723Z,41.44
2022-08-05T09:20:37.520Z,41.77
2022-08-05T09:23:19.748Z,41.70
2022-08-05T09:26:01.831Z,41.30
2022-08-05T09:28:33.497Z,41.26
2022-08-05T09:31:23.442Z,41.21
2022-08-05T09:33:56.645Z,41.30
2022-08-05T09:36:27.759Z,41.36
2022-08-05T09:39:02.610Z,41.05
2022-08-05T09:41:32.749Z,40.78
2022-08-05T09:44:01.210Z,40.49
2022-08-05T09:46:30.268Z,40.68
2022-08-05T09:49:08.032Z,40.07
2022-08-05T09:51:48.767Z,40.01
2022-08-05T09:54:21.417Z,39.97
2022-08-05T09:57:01.741Z,39.78
2022-08-05T09:59:35.055Z,40.02
2022-08-05T10:02:05.153Z,39.68
2022-08-05T10:04:41.037Z,39.81
2022-08-05T10:07:20.119Z,39.42
2022-08-05T10:10:14.282Z,39.53
2022-08-05T10:12:49.743Z,39.75
2022-08-05T10:15:20.988Z,39.71
2022-08-05T10:18:08.758Z,39.49
2022-08-05T10:20:40.191Z,38.92
2022-08-05T10:23:08.888Z,39.02
2022-08-05T10:25:50.218Z,38.95
2022-08-05T10:28:19.350Z,39.15
2022-08-05T10:32:47.206Z,39.29
2022-08-05T10:33:45.638Z,38.99
2022-08-05T10:36:23.738Z,38.76
2022-08-05T10:38:57.502Z,38.66
2022-08-05T10:41:45.172Z,38.41
2022-08-05T10:44:18.608Z,38.44
2022-08-05T10:46:50.550Z,38.37
2022-08-05T10:49:19.221Z,38.24
2022-08-05T10:52:00.160Z,38.30
2022-08-05T10:54:56.801Z,38.10
2022-08-05T10:57:30.843Z,38.27
2022-08-05T11:00:18.644Z,38.53
2022-08-05T11:03:25.628Z,37.92
2022-08-05T11:06:16.095Z,37.88
2022-08-05T11:09:18.645Z,37.80
2022-08-05T11:11:53.970Z,37.39
2022-08-05T11:14:49.512Z,37.13
2022-08-05T11:17:59.193Z,37.00
2022-08-05T11:20:44.011Z,37.23
2022-08-05T11:23:33.454Z,37.37
2022-08-05T11:26:32.181Z,36.46
2022-08-05T11:29:12.310Z,36.87
2022-08-05T11:31:54.030Z,36.94
2022-08-05T11:34:37.307Z,37.88
2022-08-05T11:37:06.212Z,38.80
2022-08-05T11:40:00.499Z,38.48
2022-08-05T11:42:32.934Z,38.89
2022-08-05T11:45:23.316Z,37.63
2022-08-05T11:47:55.750Z,38.04
2022-08-05T11:50:25.148Z,38.31
2022-08-05T11:52:57.766Z,37.33
2022-08-05T11:55:32.022Z,36.99
2022-08-05T11:58:10.417Z,37.16
2022-08-05T12:00:41.436Z,37.31
2022-08-05T12:03:28.429Z,36.57
2022-08-05T12:06:02.943Z,37.06
2022-08-05T12:08:31.732Z,37.00
2022-08-05T12:11:05.642Z,36.61
2022-08-05T12:13:48.808Z,37.07
2022-08-05T12:16:19.500Z,35.90
2022-08-05T12:18:52.739Z,34.56
2022-08-05T12:21:23.633Z,35.21
2022-08-05T12:24:04.799Z,34.60
2022-08-05T12:26:35.472Z,34.19
2022-08-05T12:29:09.377Z,34.46
2022-08-05T12:31:45.994Z,34.50
2022-08-05T12:34:20.600Z,35.44
2022-08-05T12:36:50.180Z,34.83
2022-08-05T12:39:19.220Z,34.26
2022-08-05T12:41:47.367Z,34.36
2022-08-05T12:44:28.626Z,33.97
2022-08-05T12:47:02.428Z,33.56
2022-08-05T12:50:04.278Z,34.14
2022-08-05T12:52:33.924Z,35.05
2022-08-05T12:55:03.528Z,36.20
2022-08-05T12:58:50.395Z,34.86
2022-08-05T13:02:01.735Z,34.90
2022-08-05T13:03:15.814Z,34.86
2022-08-05T13:05:47.488Z,33.83
2022-08-05T13:08:19.211Z,32.67
2022-08-05T13:10:50.775Z,32.34
2022-08-05T13:14:04.725Z,32.46
2022-08-05T13:16:15.334Z,33.25
2022-08-05T13:18:52.225Z,32.85
2022-08-05T13:21:23.316Z,31.51
2022-08-05T13:23:56.603Z,31.70
2022-08-05T13:26:30.160Z,31.62
2022-08-05T13:28:58.979Z,32.38
2022-08-05T13:31:33.747Z,32.87
2022-08-05T13:34:21.507Z,32.97
2022-08-05T13:36:53.300Z,32.75
2022-08-05T13:39:24.498Z,33.19
2022-08-05T13:42:14.097Z,33.25
2022-08-05T13:44:45.424Z,32.50
2022-08-05T13:47:35.909Z,31.77
2022-08-05T13:50:04.469Z,31.73
2022-08-05T13:52:35.198Z,32.20
2022-08-05T13:55:07.362Z,32.40
2022-08-05T13:57:49.016Z,32.62
2022-08-05T14:00:27.052Z,32.27
2022-08-05T14:02:57.461Z,31.63
2022-08-05T14:05:48.129Z,31.48
2022-08-05T14:08:20.707Z,30.89
2022-08-05T14:11:03.261Z,29.64
2022-08-05T14:13:43.215Z,29.45
2022-08-05T14:16:16.750Z,29.08
2022-08-05T14:18:46.645Z,28.41
2022-08-05T14:22:07.729Z,28.50
2022-08-05T14:24:02.477Z,28.04
2022-08-05T14:26:38.531Z,28.16
2022-08-05T14:29:16.665Z,27.82
2022-08-05T14:32:02.188Z,27.85
2022-08-05T14:34:35.514Z,27.75
2022-08-05T14:37:04.207Z,27.93
2022-08-05T14:39:49.536Z,27.67
2022-08-05T14:42:21.847Z,27.28
2022-08-05T14:44:50.046Z,27.54
2022-08-05T14:47:23.976Z,26.91
2022-08-05T14:50:18.418Z,26.95
2022-08-05T14:52:57.632Z,27.24
2022-08-05T14:55:38.347Z,27.18
2022-08-05T14:58:11.278Z,27.14
2022-08-05T15:00:59.446Z,26.82
2022-08-05T15:03:33.828Z,27.07
2022-08-05T15:06:15.048Z,26.65
2022-08-05T15:08:59.214Z,26.48
2022-08-05T15:11:51.828Z,26.51
2022-08-05T15:14:33.471Z,26.16
2022-08-05T15:17:04.170Z,26.20
2022-08-05T15:19:32.571Z,26.34
2022-08-05T15:22:02.314Z,26.08
2022-08-05T15:24:30.337Z,26.06
2022-08-05T15:26:58.762Z,26.53
2022-08-05T15:29:29.744Z,26.69
2022-08-05T15:32:02.211Z,26.34
2022-08-05T15:34:33.631Z,26.30
2022-08-05T15:37:07.026Z,26.04
2022-08-05T15:41:00.430Z,26.30
2022-08-05T15:42:54.223Z,26.50
2022-08-05T15:45:18.961Z,25.87
2022-08-05T15:48:07.054Z,25.70
2022-08-05T15:50:35.160Z,25.52
2022-08-05T15:53:05.757Z,25.25
2022-08-05T15:56:03.141Z,25.44
2022-08-05T15:58:23.251Z,25.60
2022-08-05T16:01:11.889Z,25.31
2022-08-05T16:03:40.984Z,24.99
2022-08-05T16:06:11.179Z,24.99
2022-08-05T16:08:41.036Z,24.98
2022-08-05T16:11:10.631Z,24.90
2022-08-05T16:13:38.607Z,25.13
2022-08-05T16:16:07.369Z,24.81
2022-08-05T16:18:52.466Z,24.78
2022-08-05T16:22:00.020Z,24.54
2022-08-05T16:24:12.850Z,24.27
2022-08-05T16:26:59.142Z,24.58
2022-08-05T16:29:28.634Z,24.80
2022-08-05T16:31:59.248Z,24.22
2022-08-05T16:34:27.395Z,24.22
2022-08-05T16:36:55.457Z,24.27
2022-08-05T16:40:04.757Z,24.48
2022-08-05T16:42:18.443Z,24.76
2022-08-05T16:44:54.040Z,24.92
2022-08-05T16:47:35.961Z,24.96
2022-08-05T16:50:05.505Z,24.89
2022-08-05T16:52:33.823Z,24.99
2022-08-05T16:55:04.285Z,24.73
2022-08-05T16:57:50.514Z,24.86
2022-08-05T17:00:26.126Z,25.22
2022-08-05T17:03:03.525Z,25.19
2022-08-05T17:05:31.661Z,24.96
2022-08-05T17:08:00.063Z,24.80
2022-08-05T17:10:30.535Z,24.99
2022-08-05T17:12:58.669Z,25.11
2022-08-05T17:15:47.809Z,25.13
2022-08-05T17:18:17.685Z,25.21
2022-08-05T17:20:46.982Z,25.00
2022-08-05T17:24:03.251Z,25.16
2022-08-05T17:26:04.328Z,24.96
2022-08-05T17:28:32.605Z,25.28
2022-08-05T17:31:00.597Z,25.38
2022-08-05T17:33:39.083Z,26.14
2022-08-05T17:36:33.783Z,27.21
2022-08-05T17:39:04.182Z,28.93
2022-08-05T17:42:17.473Z,29.69
2022-08-05T17:44:26.514Z,30.67
2022-08-05T17:47:00.403Z,30.99
2022-08-05T17:49:28.344Z,32.32
2022-08-05T17:52:16.468Z,32.85
2022-08-05T17:54:44.708Z,33.69
2022-08-05T17:57:14.202Z,34.11
2022-08-05T17:59:42.645Z,34.98
2022-08-05T18:02:11.075Z,35.50
2022-08-05T18:04:51.449Z,36.44
2022-08-05T18:07:21.535Z,36.30
2022-08-05T18:09:58.795Z,36.69
2022-08-05T18:12:32.008Z,37.03
2022-08-05T18:15:01.991Z,37.07
2022-08-05T18:18:00.481Z,37.20
2022-08-05T18:20:17.851Z,37.57
2022-08-05T18:22:54.739Z,38.06
2022-08-05T18:25:25.314Z,38.30
2022-08-05T18:28:05.159Z,38.59
2022-08-05T18:30:33.704Z,38.62
2022-08-05T18:33:01.711Z,38.96
2022-08-05T18:35:59.874Z,39.19
2022-08-05T18:38:19.281Z,39.04
2022-08-05T18:41:55.404Z,39.33
2022-08-05T18:43:48.602Z,39.51
2022-08-05T18:46:19.901Z,39.60
2022-08-05T18:48:52.257Z,39.80
2022-08-05T18:52:04.357Z,40.03
2022-08-05T18:54:26.259Z,40.27
2022-08-05T18:56:57.188Z,40.56
2022-08-05T18:59:43.440Z,40.74
2022-08-05T19:02:26.694Z,40.73
2022-08-05T19:05:01.227Z,40.75
2022-08-05T19:07:45.167Z,40.98
2022-08-05T19:10:14.438Z,40.82
2022-08-05T19:12:43.079Z,41.17
2022-08-05T19:15:54.730Z,41.36
2022-08-05T19:18:09.385Z,41.38
2022-08-05T19:20:41.690Z,41.59
2022-08-05T19:24:05.770Z,41.77
2022-08-05T19:26:03.795Z,41.62
2022-08-05T19:28:32.879Z,41.92
2022-08-05T19:31:05.977Z,41.96
2022-08-05T19:33:36.812Z,42.37
2022-08-05T19:36:06.911Z,42.19
2022-08-05T19:38:35.850Z,42.65
2022-08-05T19:41:07.129Z,42.57
2022-08-05T19:44:05.506Z,42.75
2022-08-05T19:46:30.625Z,42.93
2022-08-05T19:49:01.214Z,42.81
2022-08-05T19:52:06.011Z,43.16
2022-08-05T19:54:27.075Z,42.82
2022-08-05T19:56:59.710Z,43.20
2022-08-05T19:59:54.746Z,43.00
2022-08-05T20:02:20.165Z,43.36
2022-08-05T20:04:48.606Z,43.73
2022-08-05T20:07:46.188Z,43.64
2022-08-05T20:10:13.656Z,43.89
2022-08-05T20:12:45.995Z,44.13
2022-08-05T20:15:15.921Z,44.13
2022-08-05T20:18:09.614Z,44.28
2022-08-05T20:20:38.018Z,44.38
2022-08-05T20:23:06.678Z,44.54
2022-08-05T20:25:40.115Z,44.58
2022-08-05T20:28:13.664Z,44.63
2022-08-05T20:30:42.678Z,44.68
2022-08-05T20:33:12.480Z,44.65
2022-08-05T20:35:45.475Z,44.81
2022-08-05T20:38:20.192Z,44.78
2022-08-05T20:40:50.826Z,44.67
2022-08-05T20:43:57.717Z,44.84
2022-08-05T20:46:06.932Z,44.26
2022-08-05T20:48:36.489Z,44.35
2022-08-05T20:51:07.959Z,44.04
2022-08-05T20:53:40.890Z,43.70
2022-08-05T20:56:09.879Z,43.74
2022-08-05T20:58:37.898Z,43.53
2022-08-05T21:01:05.939Z,43.43
2022-08-05T21:03:34.498Z,43.16
2022-08-05T21:06:04.333Z,43.22
2022-08-05T21:08:52.359Z,42.99
2022-08-05T21:12:06.970Z,42.84
2022-08-05T21:14:08.581Z,42.86
2022-08-05T21:16:40.324Z,42.78
2022-08-05T21:19:08.321Z,42.74
2022-08-05T21:21:39.414Z,42.34
2022-08-05T21:24:13.545Z,42.67
2022-08-05T21:26:47.364Z,42.44
2022-08-05T21:29:26.521Z,42.35
2022-08-05T21:31:59.582Z,42.51
2022-08-05T21:34:28.651Z,42.28
2022-08-05T21:37:01.789Z,42.50
2022-08-05T21:39:30.531Z,42.54
2022-08-05T21:42:02.623Z,42.38
2022-08-05T21:44:31.088Z,42.23
2022-08-05T21:46:59.906Z,42.32
2022-08-05T21:49:56.892Z,42.44
2022-08-05T21:52:26.854Z,42.60
2022-08-05T21:54:56.210Z,42.27
2022-08-05T21:57:32.507Z,42.41
2022-08-05T22:00:05.783Z,42.60
2022-08-05T22:02:35.038Z,42.49
2022-08-05T22:05:04.437Z,42.13
2022-08-05T22:07:39.338Z,42.17
2022-08-05T22:10:26.847Z,42.38
2022-08-05T22:12:57.359Z,42.35
2022-08-05T22:16:02.654Z,42.52
2022-08-05T22:18:14.955Z,42.59
2022-08-05T22:20:44.246Z,42.34
2022-08-05T22:24:02.180Z,42.41
2022-08-05T22:26:38.091Z,42.44
2022-08-05T22:29:06.209Z,42.61
2022-08-05T22:31:44.940Z,42.55
2022-08-05T22:34:20.208Z,42.70
2022-08-05T22:36:56.534Z,42.73
2022-08-05T22:39:33.354Z,42.68
2022-08-05T22:42:10.198Z,42.55
2022-08-05T22:44:56.454Z,42.61
2022-08-05T22:47:29.096Z,42.45
2022-08-05T22:50:20.636Z,42.31
2022-08-05T22:52:47.470Z,42.64
2022-08-05T22:55:18.278Z,42.89
2022-08-05T22:57:49.087Z,42.90
2022-08-05T23:00:18.441Z,42.77
2022-08-05T23:02:49.034Z,43.39
2022-08-05T23:05:17.114Z,43.38
2022-08-05T23:07:48.537Z,43.43
2022-08-05T23:10:20.889Z,43.32
2022-08-05T23:12:54.544Z,43.32
2022-08-05T23:15:29.455Z,43.59
2022-08-05T23:18:01.176Z,43.60
2022-08-05T23:20:31.264Z,43.88
2022-08-05T23:23:00.188Z,43.62
2022-08-05T23:25:51.214Z,43.78
2022-08-05T23:28:20.930Z,43.71
2022-08-05T23:30:53.184Z,44.00
2022-08-05T23:33:26.067Z,43.81
2022-08-05T23:36:10.450Z,43.92
2022-08-05T23:38:38.652Z,43.63
2022-08-05T23:41:08.085Z,43.57
2022-08-05T23:44:03.617Z,44.02
2022-08-05T23:46:24.807Z,43.61
2022-08-05T23:49:00.014Z,43.92
2022-08-05T23:51:52.585Z,43.82
2022-08-05T23:54:25.981Z,44.07
2022-08-05T23:56:58.237Z,44.32
